Dalwhinnie, United Kingdom
Current Conditions -  °F | °C
As of 2:50 AM on Saturday 22 Nov 2014 (Local Time) from EGPE Reporting Station
Light Rain Light Rain  
Wind Chill: 46°   Ceiling: 3500
Heat Index: 48°   Visibility: 6mi
Dew Point: 45°   Wind: 6mph
Humidity: 87%   Direction: 150°SSE
Pressure: 29.71"   Gusts: NA
Location:  56.94°N, 4.24°W
Report Text: EGPE 220250Z 15005KT 090V190 9999 -RA BKN035 09/07 Q1006
Loading
Personal Weather Stations






























Interactive Weather Map New forecast layout! Learn more

10-Day Weather Forecast

Advertisements
Track Severe Weather on mobile